Time;durP1;ratioP1;P1;durP2;ratioP2;P2;SDS_P1;SDS_P2;PMS_P1;PMS_P2;Temp;Humidity;BMP_temperature;BMP_pressure;BME280_temperature;BME280_humidity;BME280_pressure;Samples;Min_cycle;Max_cycle;Signal;HPM_P1;HPM_P2
2022/10/31 00:00:21;;;;;;;77.47;41.55;;;;;;;9.20;100.00;101186.97;4988233;28;20629;-78
2022/10/31 00:02:46;;;;;;;64.25;35.88;;;;;;;9.18;100.00;101183.59;4954076;28;20030;-78
2022/10/31 00:05:12;;;;;;;73.90;37.30;;;;;;;9.20;100.00;101202.06;4970214;28;20042;-77
2022/10/31 00:07:37;;;;;;;69.93;36.57;;;;;;;9.15;100.00;101194.50;4969984;28;20042;-78
2022/10/31 00:10:03;;;;;;;86.93;40.53;;;;;;;9.32;100.00;101202.75;4962841;28;20096;-78
2022/10/31 00:12:28;;;;;;;79.63;41.58;;;;;;;9.42;100.00;101217.75;4962913;28;20030;-78
2022/10/31 00:14:53;;;;;;;88.27;45.73;;;;;;;9.36;100.00;101210.31;4962108;28;20242;-78
2022/10/31 00:17:19;;;;;;;66.73;38.43;;;;;;;9.27;100.00;101217.38;4954557;28;20030;-78
2022/10/31 00:19:44;;;;;;;74.00;38.83;;;;;;;9.22;100.00;101208.94;4970349;28;20358;-78
2022/10/31 00:22:10;;;;;;;91.83;43.60;;;;;;;9.28;100.00;101221.69;4954111;28;20026;-78
2022/10/31 00:24:35;;;;;;;66.60;38.33;;;;;;;9.24;100.00;101214.97;4969976;28;20049;-78
2022/10/31 00:27:01;;;;;;;60.37;35.23;;;;;;;9.16;100.00;101222.84;4970399;28;20145;-78
2022/10/31 00:29:26;;;;;;;62.47;34.77;;;;;;;9.05;100.00;101220.31;4943614;28;20031;-78
2022/10/31 00:31:52;;;;;;;82.23;40.33;;;;;;;9.14;100.00;101222.16;4952914;28;20030;-76
2022/10/31 00:34:18;;;;;;;70.65;37.47;;;;;;;9.09;100.00;101221.72;4960049;28;20453;-77
2022/10/31 00:36:43;;;;;;;60.70;31.90;;;;;;;9.03;100.00;101222.28;4945309;28;20065;-78
2022/10/31 00:39:12;;;;;;;58.17;32.95;;;;;;;9.06;100.00;101225.53;4937977;28;20092;-78
2022/10/31 00:41:37;;;;;;;52.47;30.83;;;;;;;9.06;100.00;101229.97;4968724;28;20034;-78
2022/10/31 00:44:08;;;;;;;54.08;32.28;;;;;;;9.08;100.00;101220.03;4931819;28;1030733;-78
2022/10/31 00:46:34;;;;;;;67.67;35.27;;;;;;;9.32;100.00;101245.38;4961757;28;20041;-79
2022/10/31 00:48:59;;;;;;;67.67;35.07;;;;;;;9.38;100.00;101243.00;4964235;28;20036;-78
2022/10/31 00:51:25;;;;;;;54.00;30.97;;;;;;;9.41;100.00;101255.19;4964680;28;20034;-78
2022/10/31 00:53:50;;;;;;;60.78;34.13;;;;;;;9.24;100.00;101233.63;4945060;28;20077;-78
2022/10/31 00:56:16;;;;;;;56.83;29.03;;;;;;;9.33;100.00;101249.75;4945314;29;20039;-78
2022/10/31 00:58:41;;;;;;;67.73;36.07;;;;;;;9.34;100.00;101246.97;4962940;28;20027;-78
2022/10/31 01:01:07;;;;;;;;;;;;;;;9.42;100.00;101259.56;4965823;28;20542;-79
2022/10/31 01:03:34;;;;;;;64.97;33.17;;;;;;;9.39;100.00;101257.16;4948801;28;19964;-78
2022/10/31 01:06:08;;;;;;;57.10;30.33;;;;;;;9.35;100.00;101243.28;4949045;28;20054;-79
2022/10/31 01:08:37;;;;;;;94.30;40.05;;;;;;;9.55;100.00;101260.09;4949232;28;20350;-78
2022/10/31 01:11:12;;;;;;;47.95;29.65;;;;;;;9.49;100.00;101255.34;4966138;28;20023;-78
2022/10/31 01:13:39;;;;;;;;;;;;;;;9.54;100.00;101263.75;4950875;28;20035;-78
2022/10/31 01:16:05;;;;;;;;;;;;;;;9.51;100.00;101264.88;4965634;28;19918;-78
2022/10/31 01:18:32;;;;;;;53.97;28.98;;;;;;;9.38;100.00;101253.66;4964823;28;19956;-78
2022/10/31 01:21:02;;;;;;;66.80;35.38;;;;;;;9.30;100.00;101257.03;4982133;28;20066;-77
2022/10/31 01:23:28;;;;;;;51.65;28.92;;;;;;;9.32;100.00;101253.38;4949169;28;20034;-77
2022/10/31 01:26:13;;;;;;;54.42;30.88;;;;;;;9.31;100.00;101252.56;4961388;28;20021;-78
2022/10/31 01:28:47;;;;;;;62.88;32.88;;;;;;;9.25;100.00;101242.47;4945949;28;20030;-78
2022/10/31 01:31:13;;;;;;;63.00;32.03;;;;;;;9.23;100.00;101239.94;4945807;28;20035;-79
2022/10/31 01:33:39;;;;;;;91.93;38.03;;;;;;;9.34;100.00;101244.28;4980255;28;20045;-79
2022/10/31 01:36:35;;;;;;;64.07;32.35;;;;;;;9.30;100.00;101251.72;4948742;28;20065;-79
2022/10/31 01:39:04;;;;;;;111.43;43.83;;;;;;;9.26;100.00;101250.31;4940261;28;20152;-79
2022/10/31 01:41:32;;;;;;;58.63;29.95;;;;;;;9.10;100.00;101228.72;4965285;28;20105;-79
2022/10/31 01:44:19;;;;;;;64.70;32.08;;;;;;;9.04;100.00;101235.47;4953387;28;20193;-78
2022/10/31 01:47:03;;;;;;;59.50;32.67;;;;;;;9.11;100.00;101237.56;4965240;28;20410;-80
2022/10/31 01:49:53;;;;;;;83.47;38.17;;;;;;;9.16;100.00;101236.16;4964938;28;20480;-79
2022/10/31 01:52:24;;;;;;;292.00;59.17;;;;;;;9.24;100.00;101246.94;4956471;28;20081;-78
2022/10/31 01:54:59;;;;;;;102.75;41.53;;;;;;;9.33;100.00;101249.75;4947730;28;20035;-78
2022/10/31 01:57:26;;;;;;;66.78;36.33;;;;;;;9.27;100.00;101264.47;4964870;28;20030;-78
2022/10/31 01:59:54;;;;;;;;;;;;;;;9.25;100.00;101264.63;4962059;28;20031;-78
2022/10/31 02:02:20;;;;;;;57.47;30.83;;;;;;;9.23;100.00;101263.09;4951331;28;20378;-81
2022/10/31 02:04:47;;;;;;;58.73;31.60;;;;;;;9.23;100.00;101277.25;4946766;28;20044;-79
2022/10/31 02:07:24;;;;;;;57.95;29.85;;;;;;;9.17;100.00;101277.78;4961343;28;20146;-78
2022/10/31 02:09:51;;;;;;;60.88;31.05;;;;;;;9.13;100.00;101273.75;4952864;28;20069;-78
2022/10/31 02:12:17;;;;;;;49.35;29.17;;;;;;;9.15;100.00;101284.25;4944779;29;20016;-78
2022/10/31 02:14:44;;;;;;;53.65;27.58;;;;;;;9.12;100.00;101280.03;4947032;28;20080;-78
2022/10/31 02:17:09;;;;;;;63.20;33.40;;;;;;;9.23;100.00;101273.75;4947950;28;20117;-78
2022/10/31 02:20:04;;;;;;;62.60;32.03;;;;;;;9.22;100.00;101286.19;4964205;28;20050;-78
2022/10/31 02:22:36;;;;;;;55.38;29.20;;;;;;;9.21;100.00;101278.38;4969321;28;20360;-79
2022/10/31 02:25:11;;;;;;;61.28;32.90;;;;;;;9.24;100.00;101289.56;4971112;28;20038;-78
2022/10/31 02:27:57;;;;;;;43.20;25.63;;;;;;;9.23;100.00;101293.22;4961753;28;20132;-79
2022/10/31 02:30:26;;;;;;;92.97;44.65;;;;;;;9.51;100.00;101301.34;4948628;28;20388;-78
2022/10/31 02:33:03;;;;;;;85.70;40.55;;;;;;;9.63;100.00;101305.53;4962049;28;20054;-78
2022/10/31 02:35:41;;;;;;;76.68;37.67;;;;;;;9.68;100.00;101303.28;4944561;28;20113;-78
2022/10/31 02:38:48;;;;;;;71.95;36.83;;;;;;;9.80;100.00;101306.63;4970819;28;20440;-79
2022/10/31 02:41:32;;;;;;;80.25;41.58;;;;;;;9.93;100.00;101301.84;4917403;28;20030;-77
2022/10/31 02:44:29;;;;;;;121.22;52.20;;;;;;;10.23;100.00;101312.38;4942940;28;20081;-78
2022/10/31 02:47:06;;;;;;;146.75;57.00;;;;;;;10.43;100.00;101314.03;4952395;28;20027;-79
2022/10/31 02:49:40;;;;;;;123.53;55.47;;;;;;;10.49;100.00;101308.13;4945652;28;20034;-80
2022/10/31 02:52:20;;;;;;;104.25;51.17;;;;;;;10.44;100.00;101310.38;4949866;29;20065;-79
2022/10/31 02:54:47;;;;;;;100.32;48.40;;;;;;;10.55;100.00;101314.69;4977232;28;20035;-79
2022/10/31 02:57:15;;;;;;;113.10;52.08;;;;;;;10.69;100.00;101324.03;4947065;28;20019;-79
2022/10/31 02:59:47;;;;;;;140.70;58.75;;;;;;;10.64;100.00;101311.13;4966515;28;20035;-79
2022/10/31 03:02:44;;;;;;;113.53;53.10;;;;;;;10.69;100.00;101318.69;4960264;28;20037;-79
2022/10/31 03:05:27;;;;;;;161.38;65.13;;;;;;;10.80;100.00;101325.66;4952227;28;20046;-79
2022/10/31 03:08:23;;;;;;;115.70;55.50;;;;;;;10.89;100.00;101328.28;4965851;28;20450;-78
2022/10/31 03:10:58;;;;;;;133.55;58.05;;;;;;;10.86;100.00;101333.88;4952315;28;20041;-78
2022/10/31 03:13:23;;;;;;;145.98;62.55;;;;;;;10.89;100.00;101341.63;4952604;28;20026;-79
2022/10/31 03:16:00;;;;;;;188.50;65.10;;;;;;;10.84;100.00;101337.69;4950692;28;20407;-77
2022/10/31 03:18:37;;;;;;;127.22;55.85;;;;;;;10.85;100.00;101334.06;4965361;28;20038;-79
2022/10/31 03:21:10;;;;;;;113.25;51.78;;;;;;;10.84;100.00;101329.69;4949259;28;20026;-79
2022/10/31 03:23:37;;;;;;;112.20;48.83;;;;;;;10.92;100.00;101335.97;4953012;28;20057;-78
2022/10/31 03:26:06;;;;;;;213.65;72.97;;;;;;;11.01;100.00;101349.44;4983231;28;20027;-77
2022/10/31 03:28:39;;;;;;;132.95;55.78;;;;;;;11.00;100.00;101332.53;4956562;28;20027;-76
2022/10/31 03:31:06;;;;;;;110.85;53.40;;;;;;;11.09;100.00;101346.84;4981331;28;20031;-79
2022/10/31 03:33:37;;;;;;;133.75;58.97;;;;;;;11.05;100.00;101354.31;4944412;28;20041;-77
2022/10/31 03:36:07;;;;;;;110.68;52.42;;;;;;;11.07;100.00;101359.50;4987846;28;20038;-78
2022/10/31 03:38:35;;;;;;;113.20;54.30;;;;;;;11.14;100.00;101360.56;4971685;28;20458;-78
2022/10/31 03:41:07;;;;;;;102.43;51.95;;;;;;;11.09;100.00;101346.84;4964340;28;20085;-78
2022/10/31 03:43:37;;;;;;;153.13;63.17;;;;;;;11.11;100.00;101347.53;4955097;28;20036;-78
2022/10/31 03:46:04;;;;;;;159.13;57.72;;;;;;;11.19;100.00;101356.47;4954997;28;20534;-78
2022/10/31 03:48:29;;;;;;;144.43;61.08;;;;;;;11.31;100.00;101356.25;4970837;28;20026;-79
2022/10/31 03:51:27;;;;;;;243.00;83.27;;;;;;;11.58;100.00;101374.03;4971333;28;20033;-78
2022/10/31 03:54:01;;;;;;;171.10;73.32;;;;;;;11.60;100.00;101366.69;4955164;28;20133;-79
2022/10/31 03:56:35;;;;;;;184.80;75.70;;;;;;;11.67;100.00;101378.47;4947393;28;20550;-81
2022/10/31 03:59:07;;;;;;;218.20;77.15;;;;;;;11.65;100.00;101380.44;4972903;28;20133;-79
2022/10/31 04:01:39;;;;;;;225.38;81.38;;;;;;;11.69;100.00;101389.03;4954859;28;20037;-78
2022/10/31 04:04:06;;;;;;;210.13;77.20;;;;;;;11.79;100.00;101393.28;4970774;28;20395;-78
2022/10/31 04:06:34;;;;;;;339.98;93.90;;;;;;;11.77;100.00;101395.25;4969945;28;20022;-80
2022/10/31 04:09:05;;;;;;;268.08;84.43;;;;;;;11.76;100.00;101387.41;4955022;28;20030;-79
2022/10/31 04:11:38;;;;;;;250.10;80.88;;;;;;;11.89;100.00;101403.06;4946766;28;20030;-81
2022/10/31 04:14:41;;;;;;;446.17;104.22;;;;;;;11.91;100.00;101409.13;4925245;29;20118;-79
2022/10/31 04:17:11;;;;;;;233.45;81.45;;;;;;;11.89;100.00;101403.06;4959135;28;20100;-79
2022/10/31 04:19:39;;;;;;;215.00;77.95;;;;;;;11.91;100.00;101411.78;4970412;28;20037;-78
2022/10/31 04:22:04;;;;;;;324.00;86.00;;;;;;;11.90;100.00;101421.66;4966609;28;20030;-79
2022/10/31 04:24:30;;;;;;;185.50;71.88;;;;;;;11.89;100.00;101425.31;4943652;28;20193;-79
2022/10/31 04:26:56;;;;;;;240.82;80.93;;;;;;;11.92;100.00;101434.91;4954826;28;20041;-78
2022/10/31 04:29:22;;;;;;;322.55;83.55;;;;;;;11.87;100.00;101423.75;4954564;28;20121;-78
2022/10/31 04:31:48;;;;;;;245.77;82.95;;;;;;;11.83;100.00;101421.41;4938900;28;20609;-78
2022/10/31 04:34:13;;;;;;;188.27;68.10;;;;;;;11.90;100.00;101436.88;4970374;28;20049;-79
2022/10/31 04:36:39;;;;;;;408.77;95.03;;;;;;;11.92;100.00;101450.94;4987439;28;20042;-79
2022/10/31 04:39:04;;;;;;;342.83;88.07;;;;;;;11.94;100.00;101444.44;4954344;28;20601;-78
2022/10/31 04:41:45;;;;;;;257.52;78.18;;;;;;;12.00;100.00;101448.34;4956136;28;20443;-81
2022/10/31 04:44:14;;;;;;;284.85;79.65;;;;;;;12.00;100.00;101448.34;4970160;28;20534;-78
2022/10/31 04:46:39;;;;;;;206.50;70.83;;;;;;;12.04;100.00;101455.06;4969438;28;20479;-78
2022/10/31 04:49:06;;;;;;;370.50;90.40;;;;;;;11.98;100.00;101453.00;4953975;28;20073;-78
2022/10/31 04:51:31;;;;;;;428.27;94.43;;;;;;;11.95;100.00;101458.66;4953753;28;20475;-79
2022/10/31 04:53:57;;;;;;;330.47;84.63;;;;;;;12.07;100.00;101467.28;4970077;28;20034;-78
2022/10/31 04:56:28;;;;;;;294.45;85.05;;;;;;;12.09;100.00;101467.97;4987377;28;20018;-81
2022/10/31 04:59:08;;;;;;;388.73;87.00;;;;;;;12.03;100.00;101462.25;4957433;28;20027;-78
2022/10/31 05:01:44;;;;;;;181.07;64.88;;;;;;;12.11;100.00;101468.66;4949426;28;20382;-79
2022/10/31 05:04:10;;;;;;;164.10;64.18;;;;;;;12.09;100.00;101460.78;4979760;28;20073;-81
2022/10/31 05:06:35;;;;;;;235.40;77.67;;;;;;;12.13;100.00;101466.69;4945460;28;20046;-78
2022/10/31 05:09:01;;;;;;;453.43;90.60;;;;;;;12.03;100.00;101456.03;4953898;28;20068;-78
2022/10/31 05:11:26;;;;;;;689.15;126.65;;;;;;;12.12;100.00;101467.66;4953616;28;20458;-79
2022/10/31 05:13:55;;;;;;;201.38;70.93;;;;;;;12.14;100.00;101482.56;4961829;28;20303;-78
2022/10/31 05:16:43;;;;;;;204.48;73.72;;;;;;;12.13;100.00;101483.56;4978107;28;20117;-79
2022/10/31 05:19:34;;;;;;;228.45;71.53;;;;;;;12.14;100.00;101487.91;4972214;28;20044;-79
2022/10/31 05:22:19;;;;;;;290.88;80.22;;;;;;;12.10;100.00;101497.25;4986419;28;20060;-77
2022/10/31 05:24:45;;;;;;;351.33;83.30;;;;;;;12.12;100.00;101499.78;4986795;28;20034;-80
2022/10/31 05:27:12;;;;;;;311.33;82.07;;;;;;;12.17;100.00;101513.53;4969119;28;20468;-79
2022/10/31 05:29:37;;;;;;;252.65;75.70;;;;;;;12.17;100.00;101509.00;4969147;28;20038;-78
2022/10/31 05:32:03;;;;;;;231.87;72.13;;;;;;;12.20;100.00;101516.75;4969254;28;20121;-78
2022/10/31 05:34:47;;;;;;;302.17;80.57;;;;;;;12.19;100.00;101520.41;4971406;28;20037;-78
2022/10/31 05:37:29;;;;;;;222.65;73.78;;;;;;;12.14;100.00;101512.00;4969039;28;20030;-77
2022/10/31 05:39:54;;;;;;;209.60;68.38;;;;;;;12.13;100.00;101515.69;4934536;28;20039;-79
2022/10/31 05:42:20;;;;;;;199.85;67.47;;;;;;;12.14;100.00;101513.84;4964374;28;20041;-81
2022/10/31 05:44:47;;;;;;;304.13;82.50;;;;;;;12.12;100.00;101514.00;4968643;28;20034;-78
2022/10/31 05:47:22;;;;;;;199.80;67.40;;;;;;;12.12;100.00;101532.72;4960596;28;20056;-79
2022/10/31 05:50:10;;;;;;;168.98;66.57;;;;;;;12.15;100.00;101534.25;4978287;28;20109;-79
2022/10/31 05:52:46;;;;;;;239.25;68.65;;;;;;;12.11;100.00;101525.72;4966552;28;20400;-78
2022/10/31 05:55:25;;;;;;;148.35;60.67;;;;;;;12.15;100.00;101540.47;4964092;28;20025;-78
2022/10/31 05:58:02;;;;;;;228.25;72.50;;;;;;;12.12;100.00;101538.09;4954268;28;20022;-80
2022/10/31 06:00:28;;;;;;;179.48;65.00;;;;;;;12.14;100.00;101537.94;4968920;28;20387;-79
2022/10/31 06:03:05;;;;;;;163.02;63.20;;;;;;;12.14;100.00;101541.47;4968698;28;20061;-79
2022/10/31 06:05:52;;;;;;;226.90;71.47;;;;;;;12.13;100.00;101545.16;4947109;28;20026;-78
2022/10/31 06:08:17;;;;;;;201.98;67.68;;;;;;;12.11;100.00;101541.78;4952471;28;20030;-80
2022/10/31 06:10:43;;;;;;;192.20;63.03;;;;;;;12.07;100.00;101550.25;4968369;28;20464;-78
2022/10/31 06:13:10;;;;;;;;;;;;;;;12.09;100.00;101553.63;4969290;28;20538;-79
2022/10/31 06:15:51;;;;;;;165.98;59.28;;;;;;;12.10;100.00;101549.94;4954169;28;20306;-78
2022/10/31 06:18:20;;;;;;;186.48;65.32;;;;;;;12.13;100.00;101566.56;4968278;28;20571;-80
2022/10/31 06:20:48;;;;;;;177.20;62.42;;;;;;;12.11;100.00;101557.00;4952404;28;20034;-77
2022/10/31 06:23:13;;;;;;;182.47;62.00;;;;;;;12.10;100.00;101550.78;4968281;28;20391;-78
2022/10/31 06:25:41;;;;;;;194.60;62.13;;;;;;;12.10;100.00;101563.31;4967393;28;20089;-79
2022/10/31 06:28:07;;;;;;;177.95;60.58;;;;;;;12.14;100.00;101576.25;4952168;28;20495;-77
2022/10/31 06:30:43;;;;;;;169.85;58.05;;;;;;;12.20;100.00;101578.34;4942743;28;20067;-78
2022/10/31 06:33:10;;;;;;;153.73;56.40;;;;;;;12.20;100.00;101582.84;4947225;28;20037;-78
2022/10/31 06:35:38;;;;;;;157.10;56.35;;;;;;;12.19;100.00;101590.03;4945567;28;20484;-77
2022/10/31 06:38:03;;;;;;;149.70;57.80;;;;;;;12.14;100.00;101589.63;4940186;29;20023;-78
2022/10/31 06:40:40;;;;;;;161.68;55.95;;;;;;;12.19;100.00;101598.06;4962151;28;20165;-80
2022/10/31 06:43:24;;;;;;;147.00;54.30;;;;;;;12.19;100.00;101607.94;4948735;28;20365;-79
2022/10/31 06:45:57;;;;;;;146.98;57.60;;;;;;;12.17;100.00;101610.75;4951185;28;20467;-78
2022/10/31 06:48:27;;;;;;;148.57;51.30;;;;;;;12.31;100.00;101620.09;4950572;28;20030;-78
2022/10/31 06:51:14;;;;;;;142.50;52.90;;;;;;;12.35;100.00;101617.97;4957515;28;20014;-79
2022/10/31 06:53:39;;;;;;;137.80;52.87;;;;;;;12.39;100.00;101624.69;4951249;28;20042;-79
2022/10/31 06:56:07;;;;;;;182.68;59.45;;;;;;;12.22;100.00;101603.13;4967593;28;20029;-78
2022/10/31 06:58:38;;;;;;;168.98;58.95;;;;;;;12.20;100.00;101609.63;4967554;28;20034;-78
2022/10/31 07:01:05;;;;;;;155.60;55.63;;;;;;;12.14;100.00;101616.41;4960775;28;20041;-80
2022/10/31 07:03:32;;;;;;;;;;;;;;;12.21;100.00;101633.53;4961324;28;20023;-78
2022/10/31 07:05:57;;;;;;;;;;;;;;;12.17;100.00;101632.16;4952232;28;20060;-78
2022/10/31 07:08:22;;;;;;;102.97;36.57;;;;;;;12.07;100.00;101626.03;4967839;28;19914;-78
2022/10/31 07:10:57;;;;;;;111.75;48.80;;;;;;;11.96;100.00;101635.13;4967508;28;20514;-77
2022/10/31 07:13:26;;;;;;;157.65;53.35;;;;;;;11.84;100.00;101637.13;4952002;28;20061;-77
2022/10/31 07:16:02;;;;;;;180.30;58.75;;;;;;;11.88;100.00;101639.53;4967478;28;20086;-77
2022/10/31 07:18:29;;;;;;;194.65;60.80;;;;;;;11.89;100.00;101643.88;4968288;28;20373;-78
2022/10/31 07:20:55;;;;;;;145.10;53.65;;;;;;;11.81;100.00;101632.06;4957311;28;20035;-78
2022/10/31 07:23:20;;;;;;;175.93;54.90;;;;;;;11.88;100.00;101642.22;4957299;28;20065;-79
2022/10/31 07:26:00;;;;;;;162.65;55.05;;;;;;;11.84;100.00;101653.16;4957264;28;20027;-79
2022/10/31 07:28:32;;;;;;;106.20;43.35;;;;;;;11.89;100.00;101658.09;4942460;28;20443;-78
2022/10/31 07:30:59;;;;;;;131.23;47.65;;;;;;;11.90;100.00;101669.69;4961401;28;20034;-79
2022/10/31 07:33:26;;;;;;;146.10;47.80;;;;;;;11.94;100.00;101671.91;4954440;28;20085;-78
2022/10/31 07:36:10;;;;;;;175.82;50.33;;;;;;;11.91;100.00;101671.34;4962245;28;20411;-79
2022/10/31 07:38:40;;;;;;;256.02;57.20;;;;;;;11.89;100.00;101671.47;4964615;28;20022;-78
2022/10/31 07:41:05;;;;;;;121.03;43.63;;;;;;;11.81;100.00;101674.88;4971812;28;20041;-79
2022/10/31 07:43:36;;;;;;;135.57;45.70;;;;;;;11.87;100.00;101673.50;4974436;28;20275;-79
2022/10/31 07:46:17;;;;;;;158.85;51.70;;;;;;;11.81;100.00;101674.88;4970289;28;20053;-78
2022/10/31 07:49:02;;;;;;;113.82;44.72;;;;;;;11.84;100.00;101677.25;4936971;28;20058;-78
2022/10/31 07:51:46;;;;;;;130.10;47.60;;;;;;;11.90;100.00;101683.06;4992733;28;20108;-78
2022/10/31 07:54:12;;;;;;;127.70;47.40;;;;;;;11.87;100.00;101683.28;4964953;28;20038;-78
2022/10/31 07:56:37;;;;;;;170.00;51.50;;;;;;;11.76;100.00;101685.19;4956052;28;20093;-78
2022/10/31 07:59:02;;;;;;;105.37;44.80;;;;;;;11.89;100.00;101689.38;4972811;28;20463;-78
2022/10/31 08:01:28;;;;;;;100.10;39.55;;;;;;;11.84;100.00;101677.25;4974956;28;20373;-78
2022/10/31 08:04:22;;;;;;;83.65;38.35;;;;;;;11.91;100.00;101688.25;4985185;28;20066;-78
2022/10/31 08:07:08;;;;;;;104.30;42.65;;;;;;;11.94;100.00;101676.41;4979561;28;20089;-77
2022/10/31 08:09:35;;;;;;;172.68;48.17;;;;;;;11.97;100.00;101684.16;4951157;28;20133;-78
2022/10/31 08:12:07;;;;;;;106.18;41.08;;;;;;;11.90;100.00;101678.53;4974667;28;20022;-77
2022/10/31 08:14:34;;;;;;;208.57;47.80;;;;;;;11.93;100.00;101682.75;4974512;28;20034;-78
2022/10/31 08:17:00;;;;;;;161.80;50.72;;;;;;;11.94;100.00;101687.09;4947367;28;20031;-78
2022/10/31 08:19:33;;;;;;;100.70;41.05;;;;;;;12.05;100.00;101686.91;4972069;28;20026;-77
2022/10/31 08:21:58;;;;;;;124.67;40.67;;;;;;;12.04;100.00;101682.56;4957838;28;20037;-77
2022/10/31 08:24:24;;;;;;;115.97;39.60;;;;;;;11.93;100.00;101672.88;4971970;28;20017;-78
2022/10/31 08:26:50;;;;;;;136.50;45.23;;;;;;;11.95;100.00;101680.78;4964694;28;20054;-78
2022/10/31 08:29:15;;;;;;;129.70;41.23;;;;;;;12.04;100.00;101680.72;4964398;28;20042;-78
2022/10/31 08:31:42;;;;;;;86.40;36.22;;;;;;;11.88;100.00;101668.97;4970196;28;20065;-77
2022/10/31 08:34:26;;;;;;;153.18;40.42;;;;;;;11.82;100.00;101660.53;4970349;28;20085;-78
2022/10/31 08:37:10;;;;;;;104.07;34.50;;;;;;;11.95;100.00;101676.25;4974082;28;20836;-78
2022/10/31 08:39:42;;;;;;;179.20;43.38;;;;;;;11.97;100.00;101671.59;4970967;28;20077;-77
2022/10/31 08:42:07;;;;;;;83.20;34.93;;;;;;;12.08;100.00;101670.56;4966402;28;20031;-78
2022/10/31 08:44:32;;;;;;;234.10;43.50;;;;;;;11.84;100.00;101663.88;4946205;28;20082;-77
2022/10/31 08:46:58;;;;;;;142.77;37.63;;;;;;;11.67;100.00;101643.25;4954911;28;20026;-78
2022/10/31 08:49:23;;;;;;;162.70;40.73;;;;;;;11.80;100.00;101646.44;4954855;28;20480;-77
2022/10/31 08:51:49;;;;;;;207.33;41.73;;;;;;;11.88;100.00;101652.94;4954657;28;20039;-77
2022/10/31 08:54:14;;;;;;;90.97;31.42;;;;;;;11.98;100.00;101659.06;4953159;28;20957;-77
2022/10/31 08:56:55;;;;;;;71.28;28.40;;;;;;;12.06;100.00;101666.31;4987729;28;20809;-77
2022/10/31 08:59:33;;;;;;;148.75;33.35;;;;;;;12.02;100.00;101657.78;4970100;28;20033;-78
2022/10/31 09:02:22;;;;;;;104.90;28.40;;;;;;;12.08;100.00;101659.84;4966669;28;20033;-78
2022/10/31 09:04:50;;;;;;;77.75;30.45;;;;;;;12.06;100.00;101656.50;4946810;28;20027;-77
2022/10/31 09:07:16;;;;;;;92.30;28.98;;;;;;;12.22;100.00;101658.47;4962887;28;20570;-77
2022/10/31 09:09:41;;;;;;;122.47;28.20;;;;;;;12.06;100.00;101637.75;4961736;28;20034;-78
2022/10/31 09:12:07;;;;;;;94.67;27.20;;;;;;;12.06;100.00;101645.78;4959301;28;20185;-78
2022/10/31 09:14:54;;;;;;;57.05;22.42;;;;;;;12.05;100.00;101617.31;4969437;28;20088;-78
2022/10/31 09:17:30;;;;;;;71.15;25.75;;;;;;;12.16;100.00;101626.97;4955938;28;20026;-77
2022/10/31 09:20:25;;;;;;;78.18;20.48;;;;;;;12.24;100.00;101624.38;4961825;28;20045;-77
2022/10/31 09:22:58;;;;;;;67.00;21.80;;;;;;;12.29;100.00;101608.72;4946082;28;20030;-78
2022/10/31 09:25:24;;;;;;;72.70;21.80;;;;;;;12.29;100.00;101610.53;4963004;28;20027;-77
2022/10/31 09:28:05;;;;;;;61.35;20.80;;;;;;;12.33;100.00;101601.19;4949232;28;20045;-78
2022/10/31 09:30:33;;;;;;;49.45;20.17;;;;;;;12.38;100.00;101599.72;4962398;28;20034;-80
2022/10/31 09:33:03;;;;;;;43.30;19.17;;;;;;;12.42;100.00;101597.59;4948648;28;20030;-77
2022/10/31 09:35:29;;;;;;;49.30;19.77;;;;;;;12.57;100.00;101604.13;4958328;28;20488;-77
2022/10/31 09:38:03;;;;;;;49.65;21.13;;;;;;;12.62;100.00;101588.41;4945752;28;20033;-77
2022/10/31 09:40:34;;;;;;;73.07;22.20;;;;;;;12.65;100.00;101581.91;4945781;28;20038;-77
2022/10/31 09:43:19;;;;;;;45.20;21.30;;;;;;;12.80;100.00;101584.84;4935393;28;20035;-77
2022/10/31 09:46:09;;;;;;;45.28;21.23;;;;;;;12.78;100.00;101565.41;4961832;23;20065;-87
2022/10/31 09:49:21;;;;;;;51.90;20.35;;;;;;;12.60;100.00;101550.22;4943809;28;20038;-88
2022/10/31 09:51:54;;;;;;;46.67;22.52;;;;;;;12.80;100.00;101544.66;4955628;28;20041;-87
2022/10/31 09:54:46;;;;;;;36.75;18.17;;;;;;;12.89;100.00;101532.97;4957471;28;20027;-87
2022/10/31 09:57:15;;;;;;;35.88;15.93;;;;;;;12.95;100.00;101534.22;4933903;28;20546;-88
2022/10/31 09:59:47;;;;;;;51.30;19.80;;;;;;;12.92;100.00;101521.94;4954860;28;20031;-89
2022/10/31 10:02:14;;;;;;;61.25;20.90;;;;;;;12.66;100.00;101506.72;4931749;28;20031;-88
2022/10/31 10:04:49;;;;;;;37.95;18.80;;;;;;;12.69;100.00;101516.28;4947045;28;20050;-92
2022/10/31 10:07:32;;;;;;;59.92;23.38;;;;;;;12.64;100.00;101511.41;4939159;28;20027;-88
2022/10/31 10:10:44;;;;;;;53.95;22.17;;;;;;;12.53;100.00;101508.97;4962225;28;20522;-89
2022/10/31 10:13:28;;;;;;;38.67;19.13;;;;;;;12.61;100.00;101509.03;4958800;28;20034;-89
2022/10/31 10:16:15;;;;;;;40.67;19.25;;;;;;;12.57;100.00;101509.50;4946347;28;20443;-89
2022/10/31 10:19:04;;;;;;;39.72;19.42;;;;;;;12.43;100.00;101500.19;4945519;28;20046;-89
2022/10/31 10:21:32;;;;;;;84.35;21.02;;;;;;;12.28;100.00;101502.59;4948274;29;20046;-88
2022/10/31 10:24:30;;;;;;;47.70;19.55;;;;;;;12.40;100.00;101516.56;4948647;28;20467;-89
2022/10/31 10:27:20;;;;;;;59.85;21.75;;;;;;;12.43;100.00;101524.28;4935362;29;20041;-89
2022/10/31 10:29:58;;;;;;;77.43;21.77;;;;;;;12.33;100.00;101524.38;4943125;28;20137;-88
2022/10/31 10:32:27;;;;;;;64.50;22.40;;;;;;;12.40;100.00;101524.59;4942799;29;20050;-89
2022/10/31 10:35:01;;;;;;;51.63;20.92;;;;;;;12.33;100.00;101532.41;4945087;28;20495;-88
2022/10/31 10:37:35;;;;;;;38.05;20.30;;;;;;;12.42;100.00;101544.03;4945615;28;20034;-89
2022/10/31 10:40:17;;;;;;;38.55;18.65;;;;;;;12.40;100.00;101536.16;4950221;28;20031;-88
2022/10/31 10:48:47;;;;;;;61.38;19.63;;;;;;;12.20;100.00;101542.69;4967596;28;20114;-88
2022/10/31 10:51:22;;;;;;;35.15;17.23;;;;;;;12.39;100.00;101545.19;4946614;28;20102;-89
2022/10/31 10:54:03;;;;;;;33.93;17.13;;;;;;;12.43;100.00;101546.56;4946227;28;20456;-88
2022/10/31 10:56:51;;;;;;;74.95;18.50;;;;;;;12.44;100.00;101545.56;4945867;28;20046;-90
2022/10/31 10:59:20;;;;;;;80.60;20.70;;;;;;;12.40;100.00;101529.97;4963435;28;20122;-89
2022/10/31 11:01:49;;;;;;;44.83;17.42;;;;;;;12.15;100.00;101532.44;4944523;28;20580;-89
2022/10/31 11:04:31;;;;;;;67.70;17.38;;;;;;;12.18;100.00;101537.50;4943346;29;20041;-89
2022/10/31 11:07:06;;;;;;;38.38;18.17;;;;;;;12.33;100.00;101539.63;4930589;28;20034;-88
2022/10/31 11:09:33;;;;;;;40.80;17.13;;;;;;;12.27;100.00;101525.03;4930223;28;20153;-89
2022/10/31 11:12:05;;;;;;;60.10;18.70;;;;;;;12.21;100.00;101542.53;4946979;28;20061;-89
2022/10/31 11:14:31;;;;;;;79.82;16.92;;;;;;;12.01;100.00;101541.84;4946372;28;20074;-89
2022/10/31 11:17:33;;;;;;;32.95;16.17;;;;;;;12.18;100.00;101548.19;4931712;28;20023;-88
2022/10/31 11:20:11;;;;;;;45.33;17.20;;;;;;;12.00;100.00;101542.00;4920195;29;20102;-89
2022/10/31 11:22:36;;;;;;;29.17;14.65;;;;;;;12.12;100.00;101546.13;4953198;28;20682;-89
2022/10/31 11:25:20;;;;;;;35.63;16.57;;;;;;;12.32;100.00;101552.16;4935504;29;20038;-87
2022/10/31 11:28:05;;;;;;;69.00;19.33;;;;;;;12.28;100.00;101557.97;4957521;28;20043;-90
2022/10/31 11:30:41;;;;;;;34.13;16.33;;;;;;;12.28;100.00;101558.81;4952022;28;20035;-89
2022/10/31 11:33:19;;;;;;;49.25;16.65;;;;;;;12.16;100.00;101550.19;4952035;29;20066;-89